createdAt,value
2023-02-19T00:00:46.198Z,95540.00
2023-02-19T00:01:46.190Z,95542.00
2023-02-19T00:02:46.177Z,95542.00
2023-02-19T00:03:46.213Z,95542.00
2023-02-19T00:04:46.205Z,95542.00
2023-02-19T00:05:46.143Z,95538.00
2023-02-19T00:06:46.185Z,95538.00
2023-02-19T00:07:46.125Z,95538.00
2023-02-19T00:55:31.924Z,95529.00
2023-02-19T00:56:32.908Z,95529.00
2023-02-19T00:57:32.884Z,95531.00
2023-02-19T00:58:35.464Z,95529.00
2023-02-19T00:59:32.879Z,95525.00
2023-02-19T01:00:32.854Z,95523.00
2023-02-19T01:01:32.944Z,95521.00
2023-02-19T01:02:32.831Z,95519.00
2023-02-19T01:03:32.822Z,95517.00
2023-02-19T01:04:32.858Z,95513.00
2023-02-19T01:05:32.814Z,95511.00
2023-02-19T01:06:32.793Z,95513.00
2023-02-19T01:07:32.789Z,95515.00
2023-02-19T01:08:32.779Z,95513.00
2023-02-19T01:09:32.762Z,95511.00
2023-02-19T01:10:32.770Z,95511.00
2023-02-19T01:11:32.773Z,95511.00
2023-02-19T01:12:32.735Z,95511.00
2023-02-19T01:13:32.724Z,95511.00
2023-02-19T01:14:32.742Z,95511.00
2023-02-19T01:15:32.730Z,95509.00
2023-02-19T01:16:32.707Z,95507.00
2023-02-19T01:17:32.693Z,95505.00
2023-02-19T01:18:32.685Z,95507.00
2023-02-19T01:19:32.679Z,95515.00
2023-02-19T01:20:32.670Z,95517.00
2023-02-19T01:21:32.675Z,95517.00
2023-02-19T01:22:32.646Z,95511.00
2023-02-19T01:23:32.629Z,95511.00
2023-02-19T01:24:32.646Z,95515.00
2023-02-19T01:25:32.612Z,95511.00
2023-02-19T01:26:32.607Z,95513.00
2023-02-19T01:27:32.627Z,95511.00
2023-02-19T01:28:32.591Z,95509.00
2023-02-19T01:29:32.579Z,95509.00
2023-02-19T01:30:32.629Z,95517.00
2023-02-19T01:31:32.678Z,95515.00
2023-02-19T01:32:32.555Z,95513.00
2023-02-19T01:33:32.543Z,95515.00
2023-02-19T01:34:32.538Z,95515.00
2023-02-19T01:35:32.523Z,95513.00
2023-02-19T01:36:32.520Z,95511.00
2023-02-19T01:37:32.515Z,95507.00
2023-02-19T01:38:32.499Z,95503.00
2023-02-19T01:39:32.492Z,95507.00
2023-02-19T01:40:32.479Z,95505.00
2023-02-19T01:41:32.481Z,95511.00
2023-02-19T01:42:32.464Z,95511.00
2023-02-19T01:43:32.482Z,95509.00
2023-02-19T01:44:32.455Z,95503.00
2023-02-19T01:45:32.436Z,95499.00
2023-02-19T01:46:32.527Z,95495.00
2023-02-19T01:47:32.476Z,95493.00
2023-02-19T01:48:32.413Z,95497.00
2023-02-19T01:49:32.407Z,95501.00
2023-02-19T01:50:32.390Z,95495.00
2023-02-19T01:51:32.395Z,95499.00
2023-02-19T01:52:32.404Z,95495.00
2023-02-19T01:53:32.367Z,95499.00
2023-02-19T01:54:32.359Z,95499.00
2023-02-19T01:55:32.346Z,95497.00
2023-02-19T01:56:32.350Z,95495.00
2023-02-19T01:57:32.327Z,95493.00
2023-02-19T01:58:32.327Z,95497.00
2023-02-19T01:59:32.351Z,95497.00
2023-02-19T02:00:32.325Z,95499.00
2023-02-19T02:01:32.295Z,95497.00
2023-02-19T02:02:32.290Z,95495.00
2023-02-19T02:03:32.271Z,95487.00
2023-02-19T02:04:32.269Z,95491.00
2023-02-19T02:05:32.261Z,95497.00
2023-02-19T02:06:32.259Z,95501.00
2023-02-19T02:07:32.237Z,95489.00
2023-02-19T02:08:32.226Z,95489.00
2023-02-19T02:09:32.219Z,95480.00
2023-02-19T02:10:32.215Z,95485.00
2023-02-19T02:11:32.203Z,95485.00
2023-02-19T02:12:32.197Z,95478.00
2023-02-19T02:13:32.187Z,95483.00
2023-02-19T02:14:32.185Z,95483.00
2023-02-19T02:15:32.186Z,95483.00
2023-02-19T02:16:32.190Z,95483.00
2023-02-19T02:17:32.147Z,95472.00
2023-02-19T02:18:32.148Z,95470.00
2023-02-19T02:19:32.134Z,95472.00
2023-02-19T02:20:32.123Z,95476.00
2023-02-19T02:21:32.125Z,95480.00
2023-02-19T02:22:32.124Z,95476.00
2023-02-19T02:23:32.126Z,95476.00
2023-02-19T02:24:32.095Z,95474.00
2023-02-19T02:25:32.082Z,95483.00
2023-02-19T02:26:32.072Z,95480.00
2023-02-19T02:27:32.069Z,95464.00
2023-02-19T02:28:32.061Z,95466.00
2023-02-19T02:29:32.053Z,95480.00
2023-02-19T02:30:32.145Z,95481.00
2023-02-19T02:31:32.192Z,95474.00
2023-02-19T02:32:32.035Z,95468.00
2023-02-19T02:33:32.020Z,95470.00
2023-02-19T02:34:32.017Z,95478.00
2023-02-19T02:35:32.013Z,95472.00
2023-02-19T02:36:31.986Z,95480.00
2023-02-19T02:37:32.829Z,95474.00
2023-02-19T02:38:32.021Z,95472.00
2023-02-19T02:39:31.962Z,95476.00
2023-02-19T02:40:31.952Z,95476.00
2023-02-19T02:41:31.950Z,95476.00
2023-02-19T02:42:31.933Z,95472.00
2023-02-19T02:43:31.937Z,95468.00
2023-02-19T02:44:31.928Z,95464.00
2023-02-19T02:45:31.942Z,95458.00
2023-02-19T02:46:31.900Z,95464.00
2023-02-19T02:47:31.893Z,95466.00
2023-02-19T02:48:31.893Z,95464.00
2023-02-19T02:49:31.886Z,95454.00
2023-02-19T02:50:32.025Z,95456.00
2023-02-19T02:51:31.858Z,95464.00
2023-02-19T02:52:31.846Z,95462.00
2023-02-19T02:53:31.839Z,95456.00
2023-02-19T02:54:31.840Z,95454.00
2023-02-19T02:55:31.842Z,95452.00
2023-02-19T02:56:31.839Z,95454.00
2023-02-19T02:57:31.809Z,95456.00
2023-02-19T02:58:31.813Z,95456.00
2023-02-19T02:59:32.027Z,95452.00
2023-02-19T03:00:31.803Z,95460.00
2023-02-19T03:01:31.892Z,95460.00
2023-02-19T03:02:31.871Z,95448.00
2023-02-19T03:03:31.761Z,95440.00
2023-02-19T03:04:31.754Z,95438.00
2023-02-19T03:05:31.782Z,95440.00
2023-02-19T03:06:31.765Z,95446.00
2023-02-19T03:07:31.758Z,95454.00
2023-02-19T03:08:31.751Z,95454.00
2023-02-19T03:09:31.745Z,95446.00
2023-02-19T03:10:31.734Z,95438.00
2023-02-19T03:11:31.752Z,95433.00
2023-02-19T03:12:32.521Z,95431.00
2023-02-19T03:13:31.702Z,95434.00
2023-02-19T03:14:31.697Z,95436.00
2023-02-19T03:15:31.695Z,95440.00
2023-02-19T03:16:31.749Z,95438.00
2023-02-19T03:17:31.681Z,95436.00
2023-02-19T03:18:31.680Z,95438.00
2023-02-19T03:19:31.676Z,95436.00
2023-02-19T03:20:31.664Z,95436.00
2023-02-19T03:21:31.645Z,95438.00
2023-02-19T03:22:31.648Z,95438.00
2023-02-19T03:23:31.624Z,95427.00
2023-02-19T03:24:31.625Z,95421.00
2023-02-19T03:25:31.610Z,95423.00
2023-02-19T03:26:31.621Z,95434.00
2023-02-19T03:27:31.603Z,95442.00
2023-02-19T03:28:31.593Z,95440.00
2023-02-19T03:29:31.573Z,95431.00
2023-02-19T03:30:31.656Z,95431.00
2023-02-19T03:31:31.643Z,95425.00
2023-02-19T03:32:31.543Z,95415.00
2023-02-19T03:33:31.549Z,95401.00
2023-02-19T03:34:31.532Z,95401.00
2023-02-19T03:35:31.516Z,95415.00
2023-02-19T03:36:31.513Z,95423.00
2023-02-19T03:37:31.502Z,95423.00
2023-02-19T03:38:31.492Z,95417.00
2023-02-19T03:39:31.495Z,95413.00
2023-02-19T03:40:31.481Z,95411.00
2023-02-19T03:41:31.466Z,95401.00
2023-02-19T03:42:31.458Z,95393.00
2023-02-19T03:43:31.448Z,95395.00
2023-02-19T03:44:31.447Z,95399.00
2023-02-19T03:45:31.448Z,95411.00
2023-02-19T03:46:31.423Z,95413.00
2023-02-19T03:47:31.763Z,95411.00
2023-02-19T03:48:31.419Z,95403.00
2023-02-19T03:49:31.404Z,95399.00
2023-02-19T03:50:31.390Z,95401.00
2023-02-19T03:51:32.060Z,95401.00
2023-02-19T03:52:31.378Z,95399.00
2023-02-19T03:53:31.367Z,95395.00
2023-02-19T03:54:31.360Z,95393.00
2023-02-19T03:55:31.358Z,95395.00
2023-02-19T03:56:31.359Z,95403.00
2023-02-19T03:57:31.342Z,95403.00
2023-02-19T03:58:31.323Z,95397.00
2023-02-19T03:59:31.321Z,95395.00
2023-02-19T04:00:31.348Z,95389.00
2023-02-19T04:01:31.303Z,95383.00
2023-02-19T04:02:31.378Z,95376.00
2023-02-19T04:03:31.286Z,95374.00
2023-02-19T04:04:31.371Z,95378.00
2023-02-19T04:05:31.270Z,95383.00
2023-02-19T04:06:31.262Z,95381.00
2023-02-19T04:07:31.251Z,95380.00
2023-02-19T04:08:31.272Z,95381.00
2023-02-19T04:09:31.252Z,95383.00
2023-02-19T04:10:31.232Z,95383.00
2023-02-19T04:11:31.232Z,95378.00
2023-02-19T04:12:31.207Z,95376.00
2023-02-19T04:13:31.199Z,95380.00
2023-02-19T04:14:31.194Z,95385.00
2023-02-19T04:15:31.192Z,95381.00
2023-02-19T04:16:31.189Z,95383.00
2023-02-19T04:17:31.170Z,95383.00
2023-02-19T04:18:31.159Z,95381.00
2023-02-19T04:19:31.157Z,95383.00
2023-02-19T04:20:31.139Z,95383.00
2023-02-19T04:21:31.143Z,95381.00
2023-02-19T04:22:31.125Z,95381.00
2023-02-19T04:23:31.125Z,95380.00
2023-02-19T04:24:31.121Z,95380.00
2023-02-19T04:25:31.100Z,95381.00
2023-02-19T04:26:31.085Z,95385.00
2023-02-19T04:27:31.075Z,95389.00
2023-02-19T04:28:31.083Z,95395.00
2023-02-19T04:29:31.562Z,95391.00
2023-02-19T04:30:31.191Z,95385.00
2023-02-19T04:31:31.203Z,95381.00
2023-02-19T04:32:31.033Z,95389.00
2023-02-19T04:33:31.024Z,95399.00
2023-02-19T04:34:31.012Z,95401.00
2023-02-19T04:35:31.018Z,95397.00
2023-02-19T04:36:31.017Z,95397.00
2023-02-19T04:37:31.076Z,95399.00
2023-02-19T04:38:30.996Z,95399.00
2023-02-19T04:39:30.979Z,95403.00
2023-02-19T04:40:30.975Z,95411.00
2023-02-19T04:41:30.955Z,95415.00
2023-02-19T04:42:30.961Z,95417.00
2023-02-19T04:43:30.950Z,95417.00
2023-02-19T04:44:30.940Z,95413.00
2023-02-19T04:45:30.941Z,95413.00
2023-02-19T04:46:30.985Z,95411.00
2023-02-19T04:47:30.903Z,95411.00
2023-02-19T04:48:30.888Z,95403.00
2023-02-19T04:49:30.889Z,95399.00
2023-02-19T04:50:30.890Z,95399.00
2023-02-19T04:51:30.871Z,95395.00
2023-02-19T04:52:30.863Z,95391.00
2023-02-19T04:53:30.849Z,95389.00
2023-02-19T04:54:30.839Z,95391.00
2023-02-19T04:55:30.837Z,95391.00
2023-02-19T04:56:30.823Z,95391.00
2023-02-19T04:57:30.809Z,95391.00
2023-02-19T04:58:30.801Z,95391.00
2023-02-19T04:59:30.792Z,95383.00
2023-02-19T05:00:30.802Z,95383.00
2023-02-19T05:01:30.799Z,95383.00
2023-02-19T05:02:30.775Z,95378.00
2023-02-19T05:03:30.755Z,95380.00
2023-02-19T05:04:30.870Z,95381.00
2023-02-19T05:05:30.746Z,95380.00
2023-02-19T05:06:30.756Z,95378.00
2023-02-19T05:07:30.729Z,95378.00
2023-02-19T05:08:31.066Z,95381.00
2023-02-19T05:09:30.713Z,95383.00
2023-02-19T05:10:30.702Z,95381.00
2023-02-19T05:11:30.690Z,95385.00
2023-02-19T05:12:30.697Z,95383.00
2023-02-19T05:13:30.773Z,95387.00
2023-02-19T05:14:30.662Z,95393.00
2023-02-19T05:15:31.147Z,95383.00
2023-02-19T05:16:30.645Z,95381.00
2023-02-19T05:17:30.640Z,95393.00
2023-02-19T05:18:30.630Z,95395.00
2023-02-19T05:19:30.625Z,95395.00
2023-02-19T05:20:30.614Z,95401.00
2023-02-19T05:21:30.616Z,95413.00
2023-02-19T05:22:30.601Z,95419.00
2023-02-19T05:23:30.598Z,95431.00
2023-02-19T05:24:30.580Z,95436.00
2023-02-19T05:25:31.078Z,95444.00
2023-02-19T05:26:30.562Z,95440.00
2023-02-19T05:27:30.559Z,95450.00
2023-02-19T05:28:30.551Z,95456.00
2023-02-19T05:29:31.076Z,95456.00
2023-02-19T05:30:30.599Z,95464.00
2023-02-19T05:31:30.857Z,95466.00
2023-02-19T05:32:30.517Z,95478.00
2023-02-19T05:33:30.502Z,95470.00
2023-02-19T05:34:30.496Z,95485.00
2023-02-19T05:35:30.490Z,95491.00
2023-02-19T05:36:30.480Z,95483.00
2023-02-19T05:37:30.471Z,95472.00
2023-02-19T05:38:30.465Z,95446.00
2023-02-19T05:39:30.460Z,95442.00
2023-02-19T05:40:30.460Z,95456.00
2023-02-19T05:41:30.436Z,95485.00
2023-02-19T05:42:30.430Z,95487.00
2023-02-19T05:43:30.419Z,95491.00
2023-02-19T05:44:30.414Z,95493.00
2023-02-19T05:45:30.411Z,95497.00
2023-02-19T05:46:30.468Z,95499.00
2023-02-19T05:47:30.389Z,95481.00
2023-02-19T05:48:30.380Z,95487.00
2023-02-19T05:49:30.375Z,95491.00
2023-02-19T05:50:30.361Z,95497.00
2023-02-19T05:51:30.358Z,95495.00
2023-02-19T05:52:30.346Z,95480.00
2023-02-19T05:53:30.337Z,95487.00
2023-02-19T05:54:30.325Z,95480.00
2023-02-19T05:55:30.322Z,95464.00
2023-02-19T05:56:30.312Z,95456.00
2023-02-19T05:57:30.323Z,95444.00
2023-02-19T05:58:30.298Z,95452.00
2023-02-19T05:59:30.285Z,95458.00
2023-02-19T06:00:30.278Z,95454.00
2023-02-19T06:01:30.272Z,95452.00
2023-02-19T06:02:30.315Z,95448.00
2023-02-19T06:03:30.339Z,95446.00
2023-02-19T06:04:30.243Z,95446.00
2023-02-19T06:05:30.233Z,95450.00
2023-02-19T06:06:30.232Z,95454.00
2023-02-19T06:07:30.220Z,95454.00
2023-02-19T06:08:30.212Z,95450.00
2023-02-19T06:09:30.193Z,95450.00
2023-02-19T06:10:30.193Z,95440.00
2023-02-19T06:11:30.182Z,95436.00
2023-02-19T06:12:30.172Z,95431.00
2023-02-19T06:13:30.173Z,95433.00
2023-02-19T06:14:30.158Z,95433.00
2023-02-19T06:15:30.150Z,95440.00
2023-02-19T06:16:30.135Z,95452.00
2023-02-19T06:17:30.130Z,95466.00
2023-02-19T06:18:30.130Z,95476.00
2023-02-19T06:19:30.120Z,95478.00
2023-02-19T06:20:30.117Z,95483.00
2023-02-19T06:21:30.100Z,95493.00
2023-02-19T06:22:30.102Z,95487.00
2023-02-19T06:23:30.093Z,95489.00
2023-02-19T06:24:30.119Z,95495.00
2023-02-19T06:25:30.062Z,95505.00
2023-02-19T06:26:30.058Z,95505.00
2023-02-19T06:27:30.048Z,95495.00
2023-02-19T06:28:30.054Z,95491.00
2023-02-19T06:29:30.042Z,95495.00
2023-02-19T06:30:30.070Z,95499.00
2023-02-19T06:31:30.209Z,95503.00
2023-02-19T06:32:30.076Z,95497.00
2023-02-19T06:33:30.000Z,95497.00
2023-02-19T06:34:30.002Z,95493.00
2023-02-19T06:35:29.979Z,95487.00
2023-02-19T06:36:29.983Z,95489.00
2023-02-19T06:37:29.961Z,95487.00
2023-02-19T06:38:29.961Z,95489.00
2023-02-19T06:39:29.957Z,95499.00
2023-02-19T06:40:29.943Z,95497.00
2023-02-19T06:41:29.942Z,95495.00
2023-02-19T06:42:29.917Z,95493.00
2023-02-19T06:43:29.914Z,95497.00
2023-02-19T06:44:29.898Z,95505.00
2023-02-19T06:45:29.901Z,95513.00
2023-02-19T06:46:29.969Z,95511.00
2023-02-19T06:47:29.883Z,95511.00
2023-02-19T06:48:29.884Z,95509.00
2023-02-19T06:49:29.863Z,95507.00
2023-02-19T06:50:29.855Z,95505.00
2023-02-19T06:51:29.930Z,95505.00
2023-02-19T06:52:29.838Z,95501.00
2023-02-19T06:53:29.834Z,95499.00
2023-02-19T06:54:29.821Z,95495.00
2023-02-19T06:55:29.814Z,95505.00
2023-02-19T06:56:29.809Z,95505.00
2023-02-19T06:57:29.807Z,95505.00
2023-02-19T06:58:29.803Z,95501.00
2023-02-19T06:59:29.783Z,95497.00
2023-02-19T07:00:29.770Z,95493.00
2023-02-19T07:01:29.769Z,95491.00
2023-02-19T07:02:29.758Z,95493.00
2023-02-19T07:03:29.752Z,95499.00
2023-02-19T07:04:29.825Z,95501.00
2023-02-19T07:05:29.727Z,95505.00
2023-02-19T07:06:29.712Z,95501.00
2023-02-19T07:07:29.706Z,95501.00
2023-02-19T07:08:29.797Z,95501.00
2023-02-19T07:09:29.692Z,95507.00
2023-02-19T07:10:29.735Z,95507.00
2023-02-19T07:11:29.671Z,95511.00
2023-02-19T07:12:29.670Z,95509.00
2023-02-19T07:13:29.673Z,95509.00
2023-02-19T07:14:29.643Z,95509.00
2023-02-19T07:15:29.634Z,95509.00
2023-02-19T07:16:29.749Z,95509.00
2023-02-19T07:17:29.618Z,95509.00
2023-02-19T07:18:29.611Z,95515.00
2023-02-19T07:19:29.608Z,95519.00
2023-02-19T07:20:29.669Z,95517.00
2023-02-19T07:21:29.600Z,95515.00
2023-02-19T07:22:29.576Z,95513.00
2023-02-19T07:23:29.573Z,95515.00
2023-02-19T07:24:29.587Z,95517.00
2023-02-19T07:25:29.553Z,95519.00
2023-02-19T07:26:29.540Z,95525.00
2023-02-19T07:27:29.539Z,95523.00
2023-02-19T07:28:29.521Z,95525.00
2023-02-19T07:29:29.518Z,95527.00
2023-02-19T07:30:29.700Z,95529.00
2023-02-19T07:31:29.669Z,95529.00
2023-02-19T07:32:29.493Z,95533.00
2023-02-19T07:33:29.482Z,95529.00
2023-02-19T07:34:29.477Z,95525.00
2023-02-19T07:35:29.467Z,95525.00
2023-02-19T07:36:29.467Z,95531.00
2023-02-19T07:37:29.450Z,95536.00
2023-02-19T07:38:29.451Z,95536.00
2023-02-19T07:39:29.460Z,95536.00
2023-02-19T07:40:29.427Z,95540.00
2023-02-19T07:41:29.418Z,95544.00
2023-02-19T07:42:29.420Z,95550.00
2023-02-19T07:43:29.400Z,95544.00
2023-02-19T07:44:29.403Z,95542.00
2023-02-19T07:45:29.409Z,95540.00
2023-02-19T07:46:29.382Z,95540.00
2023-02-19T07:47:29.389Z,95544.00
2023-02-19T07:48:29.357Z,95548.00
2023-02-19T07:49:29.357Z,95550.00
2023-02-19T07:50:29.341Z,95550.00
2023-02-19T07:51:29.331Z,95548.00
2023-02-19T07:52:29.338Z,95550.00
2023-02-19T07:53:29.323Z,95552.00
2023-02-19T07:54:29.315Z,95552.00
2023-02-19T07:55:29.301Z,95548.00
2023-02-19T07:56:29.298Z,95542.00
2023-02-19T07:57:29.295Z,95540.00
2023-02-19T07:58:29.276Z,95542.00
2023-02-19T07:59:29.270Z,95548.00
2023-02-19T08:00:29.262Z,95548.00
2023-02-19T08:01:29.291Z,95546.00
2023-02-19T08:02:29.244Z,95544.00
2023-02-19T08:03:29.397Z,95548.00
2023-02-19T08:04:29.225Z,95552.00
2023-02-19T08:05:29.220Z,95552.00
2023-02-19T08:06:29.231Z,95552.00
2023-02-19T08:07:29.202Z,95548.00
2023-02-19T08:08:29.198Z,95552.00
2023-02-19T08:09:29.680Z,95560.00
2023-02-19T08:10:29.185Z,95564.00
2023-02-19T08:11:29.171Z,95562.00
2023-02-19T08:12:29.158Z,95560.00
2023-02-19T08:13:29.150Z,95562.00
2023-02-19T08:14:29.141Z,95566.00
2023-02-19T08:15:29.132Z,95564.00
2023-02-19T08:16:42.486Z,95568.00
2023-02-19T08:17:29.165Z,95566.00
2023-02-19T08:18:29.098Z,95568.00
2023-02-19T08:19:29.093Z,95568.00
2023-02-19T08:20:29.083Z,95570.00
2023-02-19T08:21:29.073Z,95570.00
2023-02-19T08:22:29.080Z,95576.00
2023-02-19T08:23:29.077Z,95578.00
2023-02-19T08:24:29.051Z,95580.00
2023-02-19T08:25:29.045Z,95578.00
2023-02-19T08:26:29.037Z,95585.00
2023-02-19T08:27:29.050Z,95585.00
2023-02-19T08:28:29.013Z,95585.00
2023-02-19T08:29:29.015Z,95580.00
2023-02-19T08:30:29.130Z,95576.00
2023-02-19T08:31:29.187Z,95574.00
2023-02-19T08:32:28.972Z,95576.00
2023-02-19T08:33:28.963Z,95578.00
2023-02-19T08:34:28.955Z,95583.00
2023-02-19T08:35:28.953Z,95585.00
2023-02-19T08:36:28.951Z,95585.00
2023-02-19T08:37:29.170Z,95582.00
2023-02-19T08:38:28.931Z,95578.00
2023-02-19T08:39:28.908Z,95578.00
2023-02-19T08:40:28.901Z,95576.00
2023-02-19T08:41:28.893Z,95574.00
2023-02-19T08:42:28.905Z,95570.00
2023-02-19T08:43:28.870Z,95570.00
2023-02-19T08:44:28.863Z,95570.00
2023-02-19T08:45:28.856Z,95572.00
2023-02-19T08:46:28.857Z,95572.00
2023-02-19T08:47:28.834Z,95570.00
2023-02-19T08:48:28.829Z,95568.00
2023-02-19T08:49:28.827Z,95572.00
2023-02-19T08:50:28.806Z,95574.00
2023-02-19T08:51:28.796Z,95576.00
2023-02-19T08:52:28.796Z,95578.00
2023-02-19T08:53:28.779Z,95580.00
2023-02-19T08:54:28.766Z,95578.00
2023-02-19T08:55:28.754Z,95570.00
2023-02-19T08:56:28.749Z,95564.00
2023-02-19T08:57:28.739Z,95568.00
2023-02-19T08:58:28.733Z,95572.00
2023-02-19T08:59:28.719Z,95574.00
2023-02-19T09:00:28.729Z,95580.00
2023-02-19T09:01:28.787Z,95582.00
2023-02-19T09:02:28.690Z,95582.00
2023-02-19T09:03:28.715Z,95576.00
2023-02-19T09:04:28.778Z,95572.00
2023-02-19T09:05:28.666Z,95568.00
2023-02-19T09:06:28.666Z,95572.00
2023-02-19T09:07:28.647Z,95578.00
2023-02-19T09:08:28.636Z,95585.00
2023-02-19T09:09:28.626Z,95583.00
2023-02-19T09:10:28.627Z,95583.00
2023-02-19T09:11:28.609Z,95583.00
2023-02-19T09:12:28.605Z,95585.00
2023-02-19T09:13:28.602Z,95585.00
2023-02-19T09:14:28.591Z,95589.00
2023-02-19T09:15:28.632Z,95591.00
2023-02-19T09:16:28.565Z,95593.00
2023-02-19T09:17:28.590Z,95595.00
2023-02-19T09:18:28.558Z,95593.00
2023-02-19T09:19:28.538Z,95578.00
2023-02-19T09:20:28.536Z,95568.00
2023-02-19T09:21:28.527Z,95562.00
2023-02-19T09:22:28.535Z,95566.00
2023-02-19T09:23:28.521Z,95572.00
2023-02-19T09:24:28.497Z,95576.00
2023-02-19T09:25:28.487Z,95578.00
2023-02-19T09:26:28.476Z,95582.00
2023-02-19T09:27:28.462Z,95580.00
2023-02-19T09:28:28.457Z,95572.00
2023-02-19T09:29:28.450Z,95570.00
2023-02-19T09:30:28.502Z,95568.00
2023-02-19T09:31:28.577Z,95570.00
2023-02-19T09:32:28.414Z,95572.00
2023-02-19T09:33:28.408Z,95576.00
2023-02-19T09:34:28.701Z,95576.00
2023-02-19T09:35:28.396Z,95580.00
2023-02-19T09:36:28.387Z,95578.00
2023-02-19T09:37:28.404Z,95578.00
2023-02-19T09:38:28.367Z,95582.00
2023-02-19T09:39:28.358Z,95582.00
2023-02-19T09:40:28.350Z,95582.00
2023-02-19T09:41:28.340Z,95576.00
2023-02-19T09:42:28.336Z,95570.00
2023-02-19T09:43:28.323Z,95568.00
2023-02-19T09:44:28.323Z,95568.00
2023-02-19T09:45:28.298Z,95566.00
2023-02-19T09:46:28.362Z,95568.00
2023-02-19T09:47:28.296Z,95572.00
2023-02-19T09:48:28.279Z,95576.00
2023-02-19T09:49:28.269Z,95580.00
2023-02-19T09:50:28.274Z,95580.00
2023-02-19T09:51:28.273Z,95578.00
2023-02-19T09:52:28.246Z,95580.00
2023-02-19T09:53:28.234Z,95576.00
2023-02-19T09:54:28.220Z,95576.00
2023-02-19T09:55:28.212Z,95580.00
2023-02-19T09:56:28.211Z,95580.00
2023-02-19T09:57:28.192Z,95576.00
2023-02-19T09:58:28.194Z,95574.00
2023-02-19T09:59:28.180Z,95572.00
2023-02-19T10:00:28.167Z,95568.00
2023-02-19T10:01:28.194Z,95566.00
2023-02-19T10:02:28.149Z,95566.00
2023-02-19T10:03:28.132Z,95568.00
2023-02-19T10:04:28.151Z,95568.00
2023-02-19T10:05:28.181Z,95572.00
2023-02-19T10:06:28.130Z,95578.00
2023-02-19T10:07:28.106Z,95580.00
2023-02-19T10:08:28.090Z,95580.00
2023-02-19T10:09:28.094Z,95582.00
2023-02-19T10:10:28.082Z,95583.00
2023-02-19T10:11:28.065Z,95583.00
2023-02-19T10:12:28.060Z,95583.00
2023-02-19T10:13:28.044Z,95580.00
2023-02-19T10:14:28.085Z,95572.00
2023-02-19T10:15:28.033Z,95564.00
2023-02-19T10:16:28.021Z,95562.00
2023-02-19T10:17:28.005Z,95558.00
2023-02-19T10:18:27.997Z,95562.00
2023-02-19T10:19:27.996Z,95568.00
2023-02-19T10:20:28.037Z,95574.00
2023-02-19T10:21:27.994Z,95576.00
2023-02-19T10:22:27.955Z,95578.00
2023-02-19T10:23:27.945Z,95576.00
2023-02-19T10:24:27.938Z,95576.00
2023-02-19T10:25:27.930Z,95572.00
2023-02-19T10:26:27.935Z,95572.00
2023-02-19T10:27:27.917Z,95570.00
2023-02-19T10:28:27.912Z,95562.00
2023-02-19T10:29:27.896Z,95562.00
2023-02-19T10:30:28.258Z,95566.00
2023-02-19T10:31:28.040Z,95570.00
2023-02-19T10:32:27.869Z,95576.00
2023-02-19T10:33:27.874Z,95570.00
2023-02-19T10:34:27.961Z,95566.00
2023-02-19T10:35:27.842Z,95564.00
2023-02-19T10:36:29.863Z,95562.00
2023-02-19T10:37:27.846Z,95564.00
2023-02-19T10:38:27.817Z,95566.00
2023-02-19T10:39:27.808Z,95562.00
2023-02-19T10:40:28.751Z,95554.00
2023-02-19T10:41:27.822Z,95550.00
2023-02-19T10:42:27.816Z,95556.00
2023-02-19T10:43:27.772Z,95560.00
2023-02-19T10:44:27.816Z,95566.00
2023-02-19T10:45:27.774Z,95564.00
2023-02-19T10:46:27.799Z,95562.00
2023-02-19T10:48:27.737Z,95568.00
2023-02-19T10:49:27.718Z,95570.00
2023-02-19T10:50:27.702Z,95568.00
2023-02-19T10:51:27.693Z,95570.00
2023-02-19T10:52:27.693Z,95568.00
2023-02-19T10:53:27.687Z,95560.00
2023-02-19T10:54:27.695Z,95560.00
2023-02-19T10:55:27.663Z,95554.00
2023-02-19T10:56:27.649Z,95552.00
2023-02-19T10:57:27.646Z,95554.00
2023-02-19T10:58:27.653Z,95558.00
2023-02-19T10:59:27.676Z,95554.00
2023-02-19T11:00:27.617Z,95548.00
2023-02-19T11:01:27.654Z,95550.00
2023-02-19T11:02:27.616Z,95546.00
2023-02-19T11:03:27.585Z,95542.00
2023-02-19T11:04:27.748Z,95529.00
2023-02-19T11:05:27.567Z,95538.00
2023-02-19T11:06:27.566Z,95552.00
2023-02-19T11:07:27.549Z,95552.00
2023-02-19T11:08:27.540Z,95556.00
2023-02-19T11:09:27.535Z,95552.00
2023-02-19T11:10:27.543Z,95550.00
2023-02-19T11:11:27.521Z,95544.00
2023-02-19T11:12:27.510Z,95546.00
2023-02-19T11:13:27.496Z,95546.00
2023-02-19T11:14:27.586Z,95542.00
2023-02-19T11:15:27.509Z,95540.00
2023-02-19T11:16:27.523Z,95542.00
2023-02-19T11:17:27.467Z,95536.00
2023-02-19T11:18:27.498Z,95531.00
2023-02-19T11:19:27.729Z,95529.00
2023-02-19T11:20:27.430Z,95536.00
2023-02-19T11:21:27.427Z,95531.00
2023-02-19T11:22:27.413Z,95538.00
2023-02-19T11:23:27.440Z,95529.00
2023-02-19T11:24:27.409Z,95529.00
2023-02-19T11:25:27.403Z,95529.00
2023-02-19T11:26:27.389Z,95525.00
2023-02-19T11:27:27.380Z,95517.00
2023-02-19T11:28:27.363Z,95523.00
2023-02-19T11:29:27.355Z,95523.00
2023-02-19T11:30:27.398Z,95525.00
2023-02-19T11:31:27.488Z,95521.00
2023-02-19T11:32:27.436Z,95509.00
2023-02-19T11:33:27.451Z,95511.00
2023-02-19T11:34:27.305Z,95507.00
2023-02-19T11:35:27.320Z,95511.00
2023-02-19T11:36:29.939Z,95507.00
2023-02-19T11:37:27.290Z,95509.00
2023-02-19T11:38:27.275Z,95507.00
2023-02-19T11:39:27.263Z,95507.00
2023-02-19T11:40:27.282Z,95507.00
2023-02-19T11:41:27.252Z,95491.00
2023-02-19T11:42:29.340Z,95485.00
2023-02-19T11:43:27.237Z,95493.00
2023-02-19T11:44:27.272Z,95489.00
2023-02-19T11:45:27.740Z,95483.00
2023-02-19T11:46:27.208Z,95474.00
2023-02-19T11:47:27.195Z,95474.00
2023-02-19T11:48:28.594Z,95485.00
2023-02-19T11:49:27.175Z,95478.00
2023-02-19T11:50:27.164Z,95470.00
2023-02-19T11:51:27.154Z,95460.00
2023-02-19T11:52:27.144Z,95458.00
2023-02-19T11:53:27.137Z,95456.00
2023-02-19T11:54:27.141Z,95456.00
2023-02-19T11:55:27.119Z,95456.00
2023-02-19T11:56:27.107Z,95456.00
2023-02-19T11:57:27.101Z,95462.00
2023-02-19T11:58:27.093Z,95458.00
2023-02-19T11:59:27.113Z,95456.00
2023-02-19T12:00:27.076Z,95456.00
2023-02-19T12:01:27.060Z,95476.00
2023-02-19T12:02:27.055Z,95456.00
2023-02-19T12:03:27.043Z,95454.00
2023-02-19T12:04:27.031Z,95462.00
2023-02-19T12:05:27.188Z,95462.00
2023-02-19T12:06:27.015Z,95470.00
2023-02-19T12:07:27.017Z,95464.00
2023-02-19T12:08:26.994Z,95464.00
2023-02-19T12:09:27.015Z,95466.00
2023-02-19T12:10:26.985Z,95456.00
2023-02-19T12:11:26.983Z,95470.00
2023-02-19T12:12:26.956Z,95468.00
2023-02-19T12:13:26.950Z,95478.00
2023-02-19T12:14:26.978Z,95462.00
2023-02-19T12:15:26.939Z,95462.00
2023-02-19T12:16:26.961Z,95454.00
2023-02-19T12:17:26.930Z,95472.00
2023-02-19T12:18:26.900Z,95468.00
2023-02-19T12:19:26.892Z,95466.00
2023-02-19T12:20:26.885Z,95460.00
2023-02-19T12:21:26.890Z,95466.00
2023-02-19T12:22:26.867Z,95452.00
2023-02-19T12:23:26.858Z,95456.00
2023-02-19T12:24:26.867Z,95460.00
2023-02-19T12:25:26.856Z,95458.00
2023-02-19T12:26:26.832Z,95452.00
2023-02-19T12:27:26.848Z,95446.00
2023-02-19T12:28:26.808Z,95454.00
2023-02-19T12:29:26.812Z,95452.00
2023-02-19T12:30:26.878Z,95460.00
2023-02-19T12:31:27.823Z,95452.00
2023-02-19T12:32:26.775Z,95452.00